createdAt,value
2018-12-07T00:02:20.471Z,11.20
2018-12-07T00:04:48.091Z,12.70
2018-12-07T00:07:15.960Z,12.70
2018-12-07T00:09:43.542Z,12.70
2018-12-07T00:12:11.200Z,12.70
2018-12-07T00:14:38.789Z,12.70
2018-12-07T00:17:06.369Z,12.80
2018-12-07T00:19:33.998Z,12.70
2018-12-07T00:22:01.589Z,12.70
2018-12-07T00:24:29.169Z,12.70
2018-12-07T00:26:56.817Z,12.70
2018-12-07T00:29:24.380Z,12.80
2018-12-07T00:31:51.986Z,12.70
2018-12-07T00:34:19.545Z,12.70
2018-12-07T00:36:47.174Z,12.70
2018-12-07T00:39:14.740Z,12.70
2018-12-07T00:41:42.332Z,12.70
2018-12-07T00:44:09.907Z,12.60
2018-12-07T00:46:37.520Z,12.60
2018-12-07T00:49:05.145Z,12.60
2018-12-07T00:51:32.748Z,12.70
2018-12-07T00:54:00.318Z,12.70
2018-12-07T00:56:27.906Z,12.70
2018-12-07T00:58:55.526Z,12.70
2018-12-07T01:01:23.103Z,12.70
2018-12-07T01:03:50.717Z,12.60
2018-12-07T01:06:18.385Z,12.60
2018-12-07T01:08:46.022Z,12.70
2018-12-07T01:11:13.671Z,12.80
2018-12-07T01:13:41.259Z,12.80
2018-12-07T01:16:08.823Z,12.80
2018-12-07T01:18:36.443Z,12.80
2018-12-07T01:21:04.050Z,12.70
2018-12-07T01:23:31.642Z,12.80
2018-12-07T01:25:59.255Z,12.70
2018-12-07T01:28:26.849Z,12.70
2018-12-07T01:30:54.979Z,12.70
2018-12-07T01:33:22.561Z,12.70
2018-12-07T01:35:50.169Z,12.70
2018-12-07T01:38:17.798Z,12.70
2018-12-07T01:40:45.346Z,12.70
2018-12-07T01:43:12.949Z,12.80
2018-12-07T01:45:40.554Z,12.80
2018-12-07T01:48:08.175Z,12.80
2018-12-07T01:50:35.780Z,12.80
2018-12-07T01:53:03.400Z,12.80
2018-12-07T01:55:30.975Z,12.80
2018-12-07T01:57:58.563Z,12.80
2018-12-07T02:00:26.172Z,12.70
2018-12-07T02:02:53.740Z,12.70
2018-12-07T02:05:21.344Z,12.70
2018-12-07T02:07:48.918Z,12.80
2018-12-07T02:10:16.527Z,12.70
2018-12-07T02:12:44.114Z,12.80
2018-12-07T02:15:11.700Z,12.80
2018-12-07T02:17:39.305Z,12.80
2018-12-07T02:20:07.932Z,12.70
2018-12-07T02:22:35.865Z,12.80
2018-12-07T02:25:03.762Z,12.80
2018-12-07T02:27:33.613Z,12.80
2018-12-07T02:30:03.180Z,12.80
2018-12-07T02:32:31.036Z,12.80
2018-12-07T02:34:59.678Z,12.70
2018-12-07T02:37:28.099Z,12.70
2018-12-07T02:39:56.906Z,12.70
2018-12-07T02:42:25.010Z,12.70
2018-12-07T02:44:52.786Z,12.60
2018-12-07T02:47:20.625Z,12.60
2018-12-07T02:49:48.455Z,12.60
2018-12-07T02:52:16.168Z,12.60
2018-12-07T02:54:43.930Z,12.60
2018-12-07T02:57:11.798Z,12.60
2018-12-07T02:59:39.630Z,12.60
2018-12-07T03:02:07.473Z,12.60
2018-12-07T03:04:35.365Z,12.50
2018-12-07T03:07:03.557Z,12.50
2018-12-07T03:09:31.361Z,12.60
2018-12-07T03:11:59.125Z,12.60
2018-12-07T03:14:27.006Z,12.50
2018-12-07T03:16:54.685Z,12.50
2018-12-07T03:19:22.612Z,12.50
2018-12-07T03:21:50.359Z,12.50
2018-12-07T03:24:18.216Z,12.50
2018-12-07T03:26:45.969Z,12.50
2018-12-07T03:29:13.724Z,12.40
2018-12-07T03:31:41.505Z,12.40
2018-12-07T03:34:09.888Z,12.40
2018-12-07T03:36:37.696Z,12.40
2018-12-07T03:39:06.440Z,12.40
2018-12-07T03:41:34.962Z,12.40
2018-12-07T03:44:02.736Z,12.40
2018-12-07T03:46:30.503Z,12.50
2018-12-07T03:48:58.218Z,12.50
2018-12-07T03:51:25.991Z,12.50
2018-12-07T03:54:02.736Z,12.50
2018-12-07T03:56:30.492Z,12.50
2018-12-07T03:58:58.251Z,12.60
2018-12-07T04:01:26.068Z,12.50
2018-12-07T04:03:53.902Z,12.50
2018-12-07T04:06:21.782Z,12.60
2018-12-07T04:08:49.482Z,12.60
2018-12-07T04:11:17.490Z,12.60
2018-12-07T04:13:45.234Z,12.60
2018-12-07T04:16:12.980Z,12.60
2018-12-07T04:18:40.824Z,12.70
2018-12-07T04:21:09.348Z,12.70
2018-12-07T04:23:37.106Z,12.70
2018-12-07T04:26:04.925Z,12.80
2018-12-07T04:28:32.761Z,12.80
2018-12-07T04:31:01.825Z,12.70
2018-12-07T04:33:29.636Z,12.80
2018-12-07T04:35:57.430Z,12.70
2018-12-07T04:38:25.366Z,12.70
2018-12-07T04:40:53.161Z,12.70
2018-12-07T04:43:20.982Z,12.70
2018-12-07T04:45:48.771Z,12.70
2018-12-07T04:48:16.530Z,12.70
2018-12-07T04:50:44.215Z,12.60
2018-12-07T04:53:12.085Z,12.50
2018-12-07T04:55:39.884Z,12.60
2018-12-07T04:58:08.418Z,12.50
2018-12-07T05:00:36.696Z,12.50
2018-12-07T05:03:05.777Z,12.50
2018-12-07T05:05:34.950Z,12.40
2018-12-07T05:08:02.692Z,12.40
2018-12-07T05:10:30.426Z,12.40
2018-12-07T05:12:59.094Z,12.40
2018-12-07T05:15:27.847Z,12.40
2018-12-07T05:17:55.940Z,12.40
2018-12-07T05:20:23.680Z,12.50
2018-12-07T05:22:51.507Z,12.50
2018-12-07T05:25:20.409Z,12.50
2018-12-07T05:27:48.152Z,12.40
2018-12-07T05:30:15.922Z,12.40
2018-12-07T05:32:45.390Z,12.40
2018-12-07T05:35:13.121Z,12.40
2018-12-07T05:37:40.846Z,12.50
2018-12-07T05:40:08.705Z,12.60
2018-12-07T05:42:36.475Z,12.70
2018-12-07T05:45:05.236Z,12.60
2018-12-07T05:47:32.956Z,12.60
2018-12-07T05:50:00.751Z,12.50
2018-12-07T05:52:29.326Z,12.50
2018-12-07T05:54:57.089Z,12.60
2018-12-07T05:57:24.912Z,12.70
2018-12-07T05:59:52.714Z,12.70
2018-12-07T06:02:20.467Z,12.60
2018-12-07T06:04:48.248Z,12.60
2018-12-07T06:07:16.054Z,12.60
2018-12-07T06:09:43.812Z,12.60
2018-12-07T06:12:11.594Z,12.60
2018-12-07T06:14:40.363Z,12.50
2018-12-07T06:17:08.105Z,12.50
2018-12-07T06:19:38.479Z,12.60
2018-12-07T06:22:06.691Z,12.60
2018-12-07T06:24:34.507Z,12.60
2018-12-07T06:27:02.293Z,12.60
2018-12-07T06:29:30.018Z,12.60
2018-12-07T06:31:58.716Z,12.60
2018-12-07T06:34:26.718Z,12.70
2018-12-07T06:36:54.563Z,12.70
2018-12-07T06:39:22.315Z,12.60
2018-12-07T06:41:50.849Z,12.70
2018-12-07T06:44:19.191Z,12.70
2018-12-07T06:46:47.000Z,12.60
2018-12-07T06:49:15.823Z,12.70
2018-12-07T06:51:43.568Z,12.70
2018-12-07T06:54:11.374Z,12.70
2018-12-07T06:56:39.233Z,12.70
2018-12-07T06:59:08.449Z,12.70
2018-12-07T07:01:36.352Z,12.60
2018-12-07T07:04:04.238Z,12.60
2018-12-07T07:06:32.771Z,12.60
2018-12-07T07:09:00.722Z,12.70
2018-12-07T07:11:28.452Z,12.60
2018-12-07T07:13:56.275Z,12.60
2018-12-07T07:16:24.032Z,12.60
2018-12-07T07:18:51.836Z,12.60
2018-12-07T07:21:19.752Z,12.60
2018-12-07T07:23:54.725Z,12.60
2018-12-07T07:26:22.568Z,12.70
2018-12-07T07:28:51.494Z,12.70
2018-12-07T07:31:19.263Z,12.70
2018-12-07T07:33:47.260Z,12.70
2018-12-07T07:36:14.970Z,12.70
2018-12-07T07:38:42.796Z,12.70
2018-12-07T07:41:10.558Z,12.70
2018-12-07T07:43:38.443Z,12.60
2018-12-07T07:46:09.624Z,12.70
2018-12-07T07:48:37.426Z,12.70
2018-12-07T07:51:05.267Z,12.70
2018-12-07T07:53:33.064Z,12.70
2018-12-07T07:56:00.843Z,12.70
2018-12-07T07:58:28.634Z,12.70
2018-12-07T08:00:56.395Z,12.70
2018-12-07T08:03:24.302Z,12.70
2018-12-07T08:05:52.095Z,12.70
2018-12-07T08:08:21.176Z,12.80
2018-12-07T08:10:48.986Z,12.80
2018-12-07T08:13:20.406Z,12.80
2018-12-07T08:15:49.345Z,12.80
2018-12-07T08:18:17.154Z,12.80
2018-12-07T08:20:44.882Z,12.80
2018-12-07T08:23:15.143Z,12.80
2018-12-07T08:25:44.522Z,12.80
2018-12-07T08:28:12.472Z,12.90
2018-12-07T08:30:40.339Z,12.90
2018-12-07T08:33:08.182Z,12.90
2018-12-07T08:35:35.954Z,13.00
2018-12-07T08:38:03.893Z,13.10
2018-12-07T08:40:33.044Z,13.00
2018-12-07T08:43:00.927Z,13.10
2018-12-07T08:45:28.933Z,13.10
2018-12-07T08:47:57.786Z,13.10
2018-12-07T08:50:25.699Z,13.10
2018-12-07T08:52:53.440Z,13.10
2018-12-07T08:55:21.944Z,13.10
2018-12-07T08:57:50.300Z,13.10
2018-12-07T09:00:20.394Z,13.10
2018-12-07T09:02:48.676Z,13.10
2018-12-07T09:05:17.134Z,13.20
2018-12-07T09:07:45.625Z,13.20
2018-12-07T09:10:14.142Z,13.30
2018-12-07T09:12:42.012Z,13.20
2018-12-07T09:15:10.495Z,13.20
2018-12-07T09:17:38.781Z,13.40
2018-12-07T09:20:06.925Z,13.40
2018-12-07T09:22:34.881Z,13.50
2018-12-07T09:25:03.984Z,13.60
2018-12-07T09:27:31.787Z,13.70
2018-12-07T09:29:59.609Z,13.60
2018-12-07T09:32:28.417Z,13.60
2018-12-07T09:34:56.787Z,13.60
2018-12-07T09:37:24.999Z,13.60
2018-12-07T09:39:53.898Z,13.50
2018-12-07T09:42:25.271Z,13.40
2018-12-07T09:44:53.658Z,13.40
2018-12-07T09:47:22.471Z,13.40
2018-12-07T09:49:51.902Z,13.40
2018-12-07T09:52:22.170Z,13.40
2018-12-07T09:54:50.470Z,13.50
2018-12-07T09:57:21.300Z,13.50
2018-12-07T09:59:49.854Z,13.50
2018-12-07T10:02:18.009Z,13.50
2018-12-07T10:04:46.488Z,13.50
2018-12-07T10:07:14.809Z,13.50
2018-12-07T10:09:43.505Z,13.50
2018-12-07T10:12:12.875Z,13.50
2018-12-07T10:14:41.323Z,13.40
2018-12-07T10:17:09.787Z,13.40
2018-12-07T10:19:38.147Z,13.40
2018-12-07T10:22:06.502Z,13.30
2018-12-07T10:24:34.773Z,13.40
2018-12-07T10:27:06.111Z,13.30
2018-12-07T10:29:34.493Z,13.40
2018-12-07T10:32:02.414Z,13.30
2018-12-07T10:34:30.375Z,13.40
2018-12-07T10:36:58.239Z,13.30
2018-12-07T10:39:33.161Z,13.30
2018-12-07T10:42:02.048Z,13.30
2018-12-07T10:44:36.174Z,15.60
2018-12-07T10:47:05.196Z,13.30
2018-12-07T10:49:33.968Z,13.40
2018-12-07T10:52:13.341Z,13.40
2018-12-07T10:54:44.707Z,13.40
2018-12-07T10:57:33.794Z,13.30
2018-12-07T11:00:12.291Z,13.30
2018-12-07T11:02:46.990Z,13.30
2018-12-07T11:05:22.455Z,13.30
2018-12-07T11:07:56.877Z,13.40
2018-12-07T11:10:30.819Z,13.50
2018-12-07T11:13:05.767Z,13.40
2018-12-07T11:15:40.592Z,13.40
2018-12-07T11:18:20.534Z,13.50
2018-12-07T11:20:56.823Z,13.50
2018-12-07T11:26:39.098Z,13.50
2018-12-07T11:29:15.249Z,13.50
2018-12-07T11:31:46.755Z,13.50
2018-12-07T11:34:17.660Z,13.50
2018-12-07T11:36:45.780Z,13.50
2018-12-07T11:39:15.690Z,13.50
2018-12-07T11:41:44.483Z,13.50
2018-12-07T11:44:12.670Z,13.50
2018-12-07T11:46:43.362Z,13.40
2018-12-07T11:49:13.600Z,13.40
2018-12-07T11:51:41.366Z,13.50
2018-12-07T11:54:09.030Z,13.50
2018-12-07T11:56:38.561Z,13.50
2018-12-07T12:01:50.896Z,13.60
2018-12-07T12:04:19.942Z,13.70
2018-12-07T12:06:49.633Z,13.70
2018-12-07T12:09:18.667Z,13.70
2018-12-07T12:11:48.179Z,13.80
2018-12-07T12:17:16.403Z,13.70
2018-12-07T12:20:02.461Z,13.70
2018-12-07T12:22:34.595Z,13.60
2018-12-07T12:25:06.679Z,13.60
2018-12-07T12:28:12.963Z,13.50
2018-12-07T12:31:13.811Z,13.50
2018-12-07T12:34:12.476Z,13.60
2018-12-07T12:37:21.708Z,13.50
2018-12-07T12:40:20.324Z,13.60
2018-12-07T12:42:50.576Z,13.50
2018-12-07T12:45:39.883Z,13.50
2018-12-07T12:48:11.717Z,13.50
2018-12-07T12:50:39.869Z,13.50
2018-12-07T12:53:07.723Z,13.50
2018-12-07T12:55:35.994Z,13.40
2018-12-07T12:58:05.181Z,13.40
2018-12-07T13:00:38.018Z,13.30
2018-12-07T13:03:09.793Z,13.20
2018-12-07T13:05:40.602Z,13.20
2018-12-07T13:31:50.007Z,12.70
2018-12-07T13:34:18.179Z,12.60
2018-12-07T13:37:18.373Z,12.60
2018-12-07T13:40:17.371Z,12.60
2018-12-07T13:42:46.474Z,12.60
2018-12-07T13:45:15.743Z,12.70
2018-12-07T13:47:44.241Z,12.70
2018-12-07T13:50:17.792Z,12.80
2018-12-07T13:52:46.883Z,12.70
2018-12-07T13:55:15.455Z,12.70
2018-12-07T13:57:45.116Z,12.80
2018-12-07T14:00:14.303Z,12.80
2018-12-07T14:02:42.470Z,12.80
2018-12-07T14:05:10.675Z,12.80
2018-12-07T14:07:40.748Z,12.80
2018-12-07T14:10:09.811Z,12.70
2018-12-07T14:12:38.710Z,12.80
2018-12-07T14:15:07.970Z,12.70
2018-12-07T14:17:36.067Z,12.70
2018-12-07T14:20:07.001Z,12.80
2018-12-07T14:22:35.356Z,12.70
2018-12-07T14:25:04.328Z,12.70
2018-12-07T14:27:33.154Z,12.70
2018-12-07T14:30:01.621Z,12.70
2018-12-07T14:32:30.362Z,12.70
2018-12-07T14:34:59.420Z,12.70
2018-12-07T14:37:29.552Z,12.80
2018-12-07T14:39:58.860Z,12.70
2018-12-07T14:42:29.582Z,12.70
2018-12-07T14:44:59.509Z,12.70
2018-12-07T14:47:29.591Z,12.70
2018-12-07T14:49:59.210Z,12.70
2018-12-07T14:52:30.549Z,12.70
2018-12-07T14:54:59.496Z,12.70
2018-12-07T14:57:28.090Z,12.60
2018-12-07T14:59:56.354Z,12.60
2018-12-07T15:02:24.346Z,12.50
2018-12-07T15:04:53.067Z,12.60
2018-12-07T15:07:21.080Z,12.60
2018-12-07T15:09:49.087Z,12.50
2018-12-07T15:12:18.366Z,12.50
2018-12-07T15:14:46.458Z,12.50
2018-12-07T15:17:15.755Z,12.60
2018-12-07T15:19:44.378Z,12.60
2018-12-07T15:22:12.172Z,12.60
2018-12-07T15:24:40.920Z,12.50
2018-12-07T15:27:10.712Z,12.50
2018-12-07T15:29:38.781Z,12.60
2018-12-07T15:32:07.449Z,12.50
2018-12-07T15:34:36.240Z,12.50
2018-12-07T15:37:12.888Z,12.60
2018-12-07T16:10:15.016Z,12.40
2018-12-07T16:12:43.010Z,12.40
2018-12-07T16:15:10.946Z,12.30
2018-12-07T16:17:40.107Z,12.40
2018-12-07T16:20:10.744Z,12.50
2018-12-07T16:22:38.556Z,12.40
2018-12-07T16:25:06.661Z,12.40
2018-12-07T16:27:34.827Z,12.50
2018-12-07T16:30:02.950Z,12.50
2018-12-07T16:32:30.823Z,12.50
2018-12-07T16:34:58.910Z,12.40
2018-12-07T16:37:27.025Z,12.50
2018-12-07T16:39:55.629Z,12.50
2018-12-07T16:42:23.749Z,12.50
2018-12-07T16:47:26.689Z,12.50
2018-12-07T16:49:59.412Z,12.50
2018-12-07T16:52:39.192Z,12.50
2018-12-07T16:55:07.452Z,12.60
2018-12-07T16:57:36.020Z,12.60
2018-12-07T17:00:13.029Z,12.50
2018-12-07T17:02:41.881Z,12.40
2018-12-07T17:05:10.120Z,12.40
2018-12-07T17:07:38.154Z,12.40
2018-12-07T17:10:06.952Z,12.40
2018-12-07T17:12:35.413Z,12.40
2018-12-07T17:15:03.383Z,12.50
2018-12-07T17:17:31.741Z,12.40
2018-12-07T17:20:00.434Z,12.40
2018-12-07T17:22:28.256Z,12.40
2018-12-07T17:24:57.076Z,12.20
2018-12-07T17:27:26.481Z,12.30
2018-12-07T17:29:54.604Z,12.30
2018-12-07T17:32:22.556Z,12.40
2018-12-07T17:34:50.370Z,12.40
2018-12-07T17:37:18.391Z,12.40
2018-12-07T17:39:47.235Z,12.40
2018-12-07T17:42:15.479Z,12.40
2018-12-07T17:44:44.947Z,12.40
2018-12-07T17:47:13.096Z,12.40
2018-12-07T17:49:42.638Z,12.40
2018-12-07T17:52:11.648Z,12.40
2018-12-07T17:54:39.743Z,12.40
2018-12-07T17:57:11.385Z,12.40
2018-12-07T17:59:40.291Z,12.40
2018-12-07T18:02:08.078Z,12.40
2018-12-07T18:04:36.874Z,12.50
2018-12-07T18:07:05.312Z,12.40
2018-12-07T18:09:34.024Z,12.30
2018-12-07T18:12:02.865Z,12.30
2018-12-07T18:14:30.784Z,12.30
2018-12-07T18:17:03.730Z,12.20
2018-12-07T18:19:33.301Z,12.20
2018-12-07T18:22:01.119Z,12.20
2018-12-07T18:24:29.240Z,12.10
2018-12-07T18:26:57.957Z,12.20
2018-12-07T18:29:25.921Z,12.20
2018-12-07T18:31:54.014Z,12.20
2018-12-07T18:34:22.315Z,12.10
2018-12-07T18:36:50.540Z,12.10
2018-12-07T18:39:18.323Z,12.10
2018-12-07T18:41:46.666Z,12.10
2018-12-07T18:58:32.839Z,12.00
2018-12-07T19:01:00.899Z,12.00
2018-12-07T19:03:28.871Z,12.00
2018-12-07T19:05:56.807Z,12.00
2018-12-07T19:08:24.908Z,12.00
2018-12-07T19:10:54.193Z,11.90
2018-12-07T19:13:22.269Z,11.80
2018-12-07T19:15:50.252Z,11.80
2018-12-07T19:18:18.345Z,11.70
2018-12-07T19:20:46.138Z,11.70
2018-12-07T19:23:14.022Z,11.70
2018-12-07T19:25:42.135Z,11.70
2018-12-07T19:28:10.104Z,11.70
2018-12-07T19:30:37.967Z,11.70
2018-12-07T19:33:06.129Z,11.60
2018-12-07T19:35:34.121Z,11.50
2018-12-07T19:38:03.092Z,11.60
2018-12-07T19:40:31.250Z,11.60
2018-12-07T19:43:08.806Z,11.60
2018-12-07T19:45:37.275Z,11.60
2018-12-07T19:48:05.054Z,11.60
2018-12-07T19:50:32.991Z,11.50
2018-12-07T19:53:01.062Z,11.60
2018-12-07T19:55:29.144Z,11.60
2018-12-07T19:57:57.360Z,11.50
2018-12-07T20:00:25.197Z,11.50
2018-12-07T20:02:54.586Z,11.60
2018-12-07T20:05:22.859Z,11.60
2018-12-07T20:07:50.749Z,11.60
2018-12-07T20:10:18.452Z,11.50
2018-12-07T20:12:46.646Z,11.50
2018-12-07T20:15:14.829Z,11.40
2018-12-07T20:17:42.627Z,11.30
2018-12-07T20:20:11.534Z,11.20
2018-12-07T20:22:39.400Z,11.10
2018-12-07T20:25:09.893Z,11.00
2018-12-07T20:27:38.043Z,10.90
2018-12-07T20:30:07.717Z,10.80
2018-12-07T20:32:37.659Z,10.80
2018-12-07T20:35:05.673Z,10.70
2018-12-07T20:37:34.160Z,10.70
2018-12-07T20:40:03.152Z,10.50
2018-12-07T20:42:31.869Z,10.50
2018-12-07T20:45:00.626Z,10.50
2018-12-07T20:47:28.600Z,10.40
2018-12-07T20:49:56.694Z,10.40
2018-12-07T20:52:24.708Z,10.30
2018-12-07T20:54:54.649Z,10.30
2018-12-07T20:57:23.805Z,10.30
2018-12-07T20:59:59.166Z,10.30
2018-12-07T21:02:27.155Z,10.10
2018-12-07T21:04:57.101Z,10.10
2018-12-07T21:07:39.950Z,10.10
2018-12-07T21:10:40.881Z,10.20
2018-12-07T21:13:24.159Z,10.20
2018-12-07T21:15:53.079Z,10.20
2018-12-07T21:18:21.116Z,10.20
2018-12-07T21:20:50.662Z,10.20
2018-12-07T21:23:18.912Z,10.20
2018-12-07T21:26:11.186Z,10.20
2018-12-07T21:28:39.084Z,10.10
2018-12-07T21:31:06.814Z,10.10
2018-12-07T21:33:35.053Z,10.00
2018-12-07T21:36:15.249Z,9.90
2018-12-07T21:38:43.237Z,9.80
2018-12-07T21:41:11.219Z,9.70
2018-12-07T21:43:39.202Z,9.60
2018-12-07T21:46:08.278Z,9.60
2018-12-07T21:48:36.901Z,9.60
2018-12-07T21:51:24.495Z,9.60
2018-12-07T21:53:53.158Z,9.60
2018-12-07T21:56:21.823Z,9.60
2018-12-07T21:58:50.741Z,9.50
2018-12-07T22:01:18.887Z,9.50
2018-12-07T22:03:47.012Z,9.50
2018-12-07T22:06:16.029Z,9.40
2018-12-07T22:08:43.890Z,9.40
2018-12-07T22:11:12.784Z,9.40
2018-12-07T22:13:42.366Z,9.40
2018-12-07T22:16:11.970Z,9.40
2018-12-07T22:18:40.557Z,9.40
2018-12-07T22:21:09.632Z,9.30
2018-12-07T22:23:38.023Z,9.30
2018-12-07T22:26:06.107Z,9.20
2018-12-07T22:28:34.285Z,9.30
2018-12-07T22:31:02.346Z,9.20
2018-12-07T22:33:30.291Z,9.10
2018-12-07T22:35:58.902Z,9.10
2018-12-07T22:38:27.260Z,9.10
2018-12-07T22:40:55.652Z,9.20
2018-12-07T22:43:26.111Z,9.10
2018-12-07T22:45:54.607Z,9.20
2018-12-07T22:48:23.434Z,9.20
2018-12-07T22:50:51.711Z,9.20
2018-12-07T22:53:21.107Z,9.10
2018-12-07T22:55:49.862Z,9.00
2018-12-07T22:58:17.590Z,9.00
2018-12-07T23:00:47.646Z,9.00
2018-12-07T23:11:54.180Z,8.90
2018-12-07T23:14:22.897Z,8.90
2018-12-07T23:16:52.337Z,9.00
2018-12-07T23:19:20.726Z,9.00
2018-12-07T23:22:02.294Z,9.10
2018-12-07T23:24:30.060Z,9.10
2018-12-07T23:26:57.961Z,9.00
2018-12-07T23:29:25.802Z,9.00
2018-12-07T23:31:53.527Z,9.00
2018-12-07T23:34:21.557Z,9.00
2018-12-07T23:36:50.228Z,9.00
2018-12-07T23:39:17.892Z,8.90
2018-12-07T23:41:45.980Z,8.90
2018-12-07T23:44:21.570Z,8.90
2018-12-07T23:46:50.059Z,8.90
2018-12-07T23:49:18.716Z,9.00
2018-12-07T23:52:02.102Z,9.00
2018-12-07T23:54:44.991Z,9.00
2018-12-07T23:57:15.798Z,9.00
2018-12-07T23:59:44.008Z,9.00
